Methoni, Greece

10:03 AM EET on January 23, 2017 (GMT +0200)
foinikounda | | Change Station
Active Advisory: >>>

Elev 16 ft 36.81 °N, 21.81 °E | Updated 1 minute ago

Overcast
Overcast
48.4 °F
Feels Like 48 °F
N
3.1
Wind Variable Wind from NNE
Gusts 4.5 mph

Today
High -- | Low -- °F
--% Chance of Precip.
Yesterday
High -- | Low -- °F
Precip. -- in
Pressure 30.18 in
Visibility 6.2 miles
Clouds Few 3000 ft
Scattered Clouds 8000 ft
Mostly Cloudy 18000 ft
Windchill 48 °F
Dew Point 38 °F
Humidity 66%
Rainfall 0.00 in
Snow Depth Not available.
7:41 AM 5:48 PM
Waning Crescent, 20% visible
METAR LGKL 230750Z 30004KT 9999 FEW030 SCT080 BKN180 08/00 Q1022
Pressure 30.18 in
Visibility 6.2 miles
Clouds Few 3000 ft
Scattered Clouds 8000 ft
Mostly Cloudy 18000 ft
Windchill 48 °F
Dew Point 38 °F
Humidity 66%
Rainfall 0.00 in
Snow Depth Not available.
7:41 AM 5:48 PM
Waning Crescent, 20% visible
METAR LGKL 230750Z 30004KT 9999 FEW030 SCT080 BKN180 08/00 Q1022

Get Your Daily Forecast Email!

Thanks for signing up!

Be on the lookout for a verification email in your inbox.

You'll start receiving the daily forecast at 8 AM.

×

10-Day Weather Forecast

×

Almanac

Astronomy

Jan. 23, 2017 Rise Set
Actual Time
Civil Twilight
Nautical Twilight
Astronomical Twilight
Moon
Length of Visible Light
Length of Day
Tomorrow will be .
, % of the Moon is Illuminated

Today's Extremes

Country Highs Country Lows

Community

WunderPhotos

Upload Photos

1,962,540 photos uploaded!

WunderBlog® & News

Nearby

Air Quality

  Air Quality AQ Index Pollutant
Not available.

Snow Depth

Station Depth Elevation

Earthquake Activity

City Distance Mag. Time & Date
Minimum magnitude displayed is 2.5.

Coastal Water Temperatures

Place Temperature

Stations

Nearby Weather Stations

Station Location Temp. Windchill Dew Point Humidity Wind Precip. Elev Updated Type